Brackenridge, PA (15014)

6:41 AM EDT on July 23, 2016 (GMT -0400)
Carlisle St | | Change Station

Elev 955 ft 40.61 °N, 79.75 °W | Updated 4 seconds ago

Partly Cloudy
Partly Cloudy
70.8 °F
Feels Like 70.8 °F
N
0.0
Wind Variable Wind from SW
Gusts 2.0 mph

Today
High -- | Low -- °F
--% Chance of Precip.
Yesterday
High -- | Low -- °F
Precip. -- in
Pressure 30.04 in
Visibility 9.0 miles
Clouds Few 3900 ft
Dew Point 69 °F
Humidity 93%
Rainfall 0.00 in
Snow Depth Not available.
6:08 AM 8:42 PM
Waning Gibbous, 86% visible
METAR KBTP 231035Z AUTO 24003KT 9SM FEW039 21/19 A3004 RMK AO1
Pressure 30.04 in
Visibility 9.0 miles
Clouds Few 3900 ft
Dew Point 69 °F
Humidity 93%
Rainfall 0.00 in
Snow Depth Not available.
6:08 AM 8:42 PM
Waning Gibbous, 86% visible
METAR KBTP 231035Z AUTO 24003KT 9SM FEW039 21/19 A3004 RMK AO1

10-Day Weather Forecast

Almanac

Astronomy

Jul. 23, 2016 Rise Set
Actual Time
Civil Twilight
Nautical Twilight
Astronomical Twilight
Moon
Length of Visible Light
Length of Day
Tomorrow will be .
, % of the Moon is Illuminated

Today's Extremes

State Highs State Lows

Community

WunderPhotos

Upload Photos

1,926,793 photos uploaded!

WunderBlog® & News

Nearby

Air Quality

  Air Quality AQ Index Pollutant
Not available.

Snow Depth

Station Depth Elevation

Earthquake Activity

City Distance Mag. Time & Date
Minimum magnitude displayed is 2.5.

Coastal Water Temperatures

Place Temperature

Stations

Nearby Weather Stations

Station Location Temp. Windchill Dew Point Humidity Wind Precip. Elev Updated Type
                   

Watches & Warnings

There are currently no watches in effect.